Latest Weather Observations for Maria Island

IDT60901

Issued at 11:01 pm EDT Monday 5 December 2022 (issued every 10 minutes, with the page automatically refreshed every 10 minutes)

About weather observations | Map of Hobart area stations | Latest observations for Hobart area | Other Formats
Station Details ID: 092124 Name: MARIA ISLAND (POINT LESUEUR) Lat: -42.66 Lon: 148.02 Height: 28.0 m
Data from the previous 72 hours. | See also: Recent months at Maria Island
Date/Time
EDT
Temp
°C
App
Temp
°C
Dew
Point
°C
Rel
Hum
%
Delta-T
°C
Wind Press
QNH
hPa
Press
MSL
hPa
Rain since
9am
mm
Dir  Spd
km/h
Gust
km/h
Spd
kts
Gust
kts
05/11:00pm 11.6 - - - - S 39 48 21 26 1015.1 1015.1 0.8
05/10:30pm 11.7 - - - - S 44 54 24 29 1015.0 1015.0 0.8
05/10:00pm 11.8 - - - - S 46 54 25 29 1014.8 1014.8 0.8
05/09:30pm 12.0 - - - - S 44 52 24 28 1014.7 1014.7 0.8
05/09:00pm 12.0 - - - - S 46 56 25 30 1014.4 1014.4 0.8
05/08:30pm 12.2 - - - - S 50 61 27 33 1014.0 1014.0 0.8
05/08:00pm 12.2 - - - - S 50 59 27 32 1013.7 1013.7 0.8
05/07:30pm 12.3 - - - - S 50 59 27 32 1013.5 1013.5 0.8
05/07:00pm 12.4 - - - - S 48 56 26 30 1013.0 1013.0 0.8
05/06:30pm 12.2 - - - - S 52 63 28 34 1012.5 1012.4 0.8
05/06:00pm 12.5 - - - - S 48 57 26 31 1012.0 1011.9 0.8
05/05:30pm 12.3 - - - - S 52 63 28 34 1011.5 1011.4 0.8
05/05:16pm 11.9 - - - - S 43 61 23 33 1011.5 1011.4 0.8
05/05:00pm 11.0 - - - - S 48 61 26 33 1011.7 1011.6 0.8
05/04:30pm 11.2 - - - - S 52 65 28 35 1011.6 1011.5 0.6
05/04:00pm 11.4 - - - - S 48 61 26 33 1011.5 1011.4 0.6
05/03:30pm 11.4 - - - - S 54 69 29 37 1011.2 1011.1 0.6
05/03:25pm 12.6 - - - - S 46 67 25 36 1011.1 1011.0 0.6
05/03:00pm 12.1 - - - - S 52 65 28 35 1011.3 1011.2 0.6
05/02:30pm 12.2 - - - - S 54 65 29 35 1011.0 1010.9 0.6
05/02:00pm 12.4 - - - - S 52 65 28 35 1010.9 1010.8 0.6
05/01:30pm 11.9 - - - - S 52 65 28 35 1010.7 1010.6 0.6
05/01:00pm 12.3 - - - - S 43 52 23 28 1010.5 1010.4 0.4
05/12:30pm 12.5 - - - - S 50 61 27 33 1010.2 1010.1 0.4
05/12:00pm 12.2 - - - - S 52 63 28 34 1009.7 1009.6 0.4
05/11:30am 12.1 - - - - S 57 69 31 37 1009.3 1009.2 0.4
05/11:00am 12.6 - - - - S 54 72 29 39 1008.9 1008.8 0.2
05/10:30am 12.8 - - - - S 57 69 31 37 1008.5 1008.4 0.0
05/10:00am 13.2 - - - - S 54 63 29 34 1008.3 1008.2 0.0
05/09:30am 13.4 - - - - S 54 67 29 36 1007.9 1007.8 0.0
05/09:00am 12.6 - - - - S 57 69 31 37 1007.7 1007.6 0.6
05/08:30am 13.3 - - - - S 56 67 30 36 1007.1 1007.0 0.6
05/08:00am 13.6 - - - - S 46 61 25 33 1006.4 1006.3 0.4
05/07:30am 13.8 - - - - SSE 41 59 22 32 1006.1 1006.0 0.2
05/07:23am 13.9 - - - - SSE 41 59 22 32 1005.8 1005.7 0.2
05/07:00am 14.2 - - - - S 33 39 18 21 1005.6 1005.5 0.2
05/06:30am 14.3 - - - - S 32 46 17 25 1005.2 1005.1 0.0
05/06:00am 14.2 - - - - SSW 30 35 16 19 1004.9 1004.8 0.0
05/05:30am 14.0 - - - - SSW 28 32 15 17 1004.7 1004.6 0.0
05/05:00am 14.0 - - - - SSW 22 26 12 14 1004.5 1004.4 0.0
05/04:30am 14.0 - - - - SSW 24 28 13 15 1004.5 1004.4 0.0
05/04:00am 14.1 - - - - SSW 19 20 10 11 1004.7 1004.6 0.0
05/03:30am 14.2 - - - - SSW 20 24 11 13 1004.7 1004.6 0.0
05/03:00am 14.5 - - - - SSW 15 17 8 9 1004.8 1004.7 0.0
05/02:30am 14.5 - - - - SW 15 17 8 9 1005.3 1005.2 0.0
05/02:00am 14.7 - - - - SSW 15 19 8 10 1005.2 1005.1 0.0
05/01:30am 14.6 - - - - S 13 17 7 9 1004.9 1004.8 0.0
05/01:00am 14.8 - - - - NW 6 13 3 7 1006.1 1006.0 0.0
05/12:30am 14.5 - - - - ESE 9 15 5 8 1005.8 1005.7 0.0
05/12:00am 14.8 - - - - N 13 17 7 9 1007.0 1006.9 0.0
 
Date/Time
EDT
Temp
°C
App
Temp
°C
Dew
Point
°C
Rel
Hum
%
Delta-T
°C
Wind Press
QNH
hPa
Press
MSL
hPa
Rain since
9am
mm
Dir  Spd
km/h
Gust
km/h
Spd
kts
Gust
kts
04/11:30pm 14.8 - - - - N 7 9 4 5 1007.4 1007.3 0.0
04/11:00pm 14.7 - - - - N 19 26 10 14 1007.3 1007.2 0.0
04/10:30pm 14.7 - - - - N 22 28 12 15 1006.7 1006.6 0.0
04/10:00pm 14.7 - - - - N 24 28 13 15 1007.4 1007.3 0.0
04/09:30pm 14.2 - - - - NE 9 13 5 7 1007.8 1007.7 0.0
04/09:00pm 14.4 - - - - E 11 19 6 10 1008.3 1008.2 0.0
04/08:30pm 14.4 - - - - E 15 20 8 11 1008.5 1008.4 0.0
04/08:00pm 14.5 - - - - E 15 20 8 11 1008.7 1008.6 0.0
04/07:30pm 14.7 - - - - E 17 20 9 11 1008.9 1008.8 0.0
04/07:00pm 14.9 - - - - ESE 19 22 10 12 1009.1 1009.0 0.0
04/06:30pm 15.2 - - - - ESE 19 22 10 12 1009.0 1008.9 0.0
04/06:00pm 15.3 - - - - ESE 20 24 11 13 1009.7 1009.6 0.0
04/05:30pm 15.8 - - - - ESE 20 26 11 14 1009.8 1009.7 0.0
04/05:00pm 15.9 - - - - ESE 22 26 12 14 1010.0 1009.9 0.0
04/04:30pm 16.1 - - - - ESE 22 24 12 13 1009.9 1009.8 0.0
04/04:00pm 16.0 - - - - ESE 22 26 12 14 1010.1 1010.0 0.0
04/03:30pm 15.8 - - - - E 20 26 11 14 1009.9 1009.8 0.0
04/03:00pm 16.3 - - - - E 22 28 12 15 1010.0 1009.9 0.0
04/02:30pm 16.9 - - - - E 22 26 12 14 1010.4 1010.3 0.0
04/02:00pm 16.6 - - - - E 24 28 13 15 1010.8 1010.7 0.0
04/01:30pm 16.8 - - - - ESE 20 26 11 14 1011.6 1011.5 0.0
04/01:00pm 16.8 - - - - E 20 26 11 14 1011.6 1011.5 0.0
04/12:30pm 16.2 - - - - ESE 19 22 10 12 1012.0 1011.9 0.0
04/12:00pm 16.9 - - - - E 19 22 10 12 1012.1 1012.0 0.0
04/11:30am 16.7 - - - - E 13 19 7 10 1012.4 1012.3 0.0
04/11:00am 16.5 - - - - ESE 13 15 7 8 1012.3 1012.2 0.0
04/10:30am 15.9 - - - - E 9 13 5 7 1012.6 1012.5 0.0
04/10:00am 15.6 - - - - S 6 7 3 4 1012.9 1012.8 0.0
04/09:30am 15.9 - - - - S 4 7 2 4 1013.1 1013.1 0.0
04/09:00am 15.1 - - - - S 7 13 4 7 1012.9 1012.8 0.0
04/08:30am 15.1 - - - - WNW 4 7 2 4 1012.8 1012.7 0.0
04/08:00am 15.2 - - - - SW 2 4 1 2 1012.7 1012.6 0.0
04/07:30am 14.6 - - - - SSE 2 4 1 2 1012.6 1012.5 0.0
04/07:00am 14.4 - - - - S 9 11 5 6 1012.6 1012.5 0.0
04/06:30am 14.2 - - - - S 9 13 5 7 1012.5 1012.4 0.0
04/06:00am 14.3 - - - - SSW 13 17 7 9 1012.3 1012.2 0.0
04/05:30am 14.2 - - - - SE 4 7 2 4 1012.0 1011.9 0.0
04/05:00am 14.1 - - - - E 4 6 2 3 1011.6 1011.5 0.0
04/04:30am 14.0 - - - - E 7 9 4 5 1011.6 1011.5 0.0
04/04:00am 14.0 - - - - ENE 7 9 4 5 1011.6 1011.5 0.0
04/03:30am 14.2 - - - - ESE 6 7 3 4 1012.1 1012.0 0.0
04/03:00am 14.3 - - - - SSE 11 15 6 8 1012.7 1012.6 0.0
04/02:30am 14.3 - - - - S 11 17 6 9 1012.9 1012.8 0.0
04/02:00am 14.2 - - - - SSE 13 19 7 10 1013.1 1013.1 0.0
04/01:30am 14.3 - - - - SSE 20 22 11 12 1013.3 1013.3 0.0
04/01:00am 14.4 - - - - SSE 19 26 10 14 1013.6 1013.6 0.0
04/12:30am 14.3 - - - - SSE 22 32 12 17 1013.8 1013.8 0.0
04/12:00am 14.2 - - - - SSE 22 28 12 15 1013.8 1013.8 0.0
 
Date/Time
EDT
Temp
°C
App
Temp
°C
Dew
Point
°C
Rel
Hum
%
Delta-T
°C
Wind Press
QNH
hPa
Press
MSL
hPa
Rain since
9am
mm
Dir  Spd
km/h
Gust
km/h
Spd
kts
Gust
kts
03/11:30pm 14.4 - - - - S 26 30 14 16 1013.7 1013.7 0.0
03/11:00pm 14.7 - - - - SSE 22 28 12 15 1013.8 1013.8 0.0
03/10:30pm 14.8 - - - - SSE 24 30 13 16 1013.6 1013.6 0.0
03/10:00pm 15.1 - - - - S 22 28 12 15 1013.4 1013.4 0.0
03/09:30pm 15.5 - - - - S 19 22 10 12 1013.1 1013.1 0.0
03/09:00pm 15.7 - - - - SSE 19 22 10 12 1012.7 1012.6 0.0
03/08:30pm 15.8 - - - - SSW 30 33 16 18 1012.0 1011.9 0.0
03/08:00pm 16.5 - - - - SSW 20 24 11 13 1011.9 1011.8 0.0
03/07:30pm 18.0 - - - - N 15 17 8 9 1011.6 1011.5 0.0
03/07:00pm 17.7 - - - - N 19 20 10 11 1011.4 1011.3 0.0
03/06:30pm 17.3 - - - - N 22 24 12 13 1011.1 1011.0 0.0
03/06:00pm 18.3 - - - - N 28 30 15 16 1010.8 1010.7 0.0
03/05:30pm 18.6 - - - - N 26 32 14 17 1010.8 1010.7 0.0
03/05:00pm 19.4 - - - - N 30 32 16 17 1010.8 1010.7 0.0
03/04:30pm 19.2 - - - - N 24 28 13 15 1010.9 1010.8 0.0
03/04:00pm 19.5 - - - - N 15 24 8 13 1011.1 1011.0 0.0
03/03:30pm 21.4 - - - - SW 4 11 2 6 1011.7 1011.6 0.0
03/03:00pm 20.9 - - - - SE 11 15 6 8 1012.0 1011.9 0.0
03/02:30pm 22.0 - - - - WSW 4 7 2 4 1012.3 1012.2 0.0
03/02:00pm 21.4 - - - - NNE 13 19 7 10 1012.4 1012.3 0.0
03/01:30pm 19.4 - - - - N 26 28 14 15 1012.5 1012.4 0.0
03/01:00pm 19.4 - - - - N 28 32 15 17 1012.7 1012.6 0.0
03/12:30pm 19.1 - - - - N 26 28 14 15 1012.9 1012.8 0.0
03/12:00pm 18.3 - - - - N 26 30 14 16 1013.0 1013.0 0.0
03/11:30am 18.9 - - - - N 26 30 14 16 1013.4 1013.4 0.0
03/11:00am 18.0 - - - - N 26 32 14 17 1013.5 1013.5 0.0
03/10:30am 17.5 - - - - N 26 30 14 16 1013.8 1013.8 0.0
03/10:00am 16.8 - - - - N 22 28 12 15 1014.1 1014.1 0.0
03/09:30am 15.9 - - - - N 19 22 10 12 1014.5 1014.5 0.0
03/09:00am 15.7 - - - - N 17 20 9 11 1015.0 1015.0 0.0
03/08:30am 14.9 - - - - N 20 24 11 13 1015.1 1015.1 0.0
03/08:00am 15.1 - - - - N 17 20 9 11 1015.1 1015.1 0.0
03/07:30am 14.1 - - - - NW 13 20 7 11 1015.1 1015.1 0.0
03/07:00am 14.0 - - - - WNW 15 19 8 10 1015.1 1015.1 0.0
03/06:30am 13.5 - - - - WNW 20 24 11 13 1014.9 1014.9 0.0
03/06:00am 13.4 - - - - NW 24 28 13 15 1014.8 1014.8 0.0
03/05:30am 13.5 - - - - NW 22 26 12 14 1014.8 1014.8 0.0
03/05:00am 13.5 - - - - NW 24 28 13 15 1014.5 1014.5 0.0
03/04:30am 13.6 - - - - NW 22 28 12 15 1014.4 1014.4 0.0
03/04:00am 13.5 - - - - NW 13 22 7 12 1014.5 1014.5 0.0
03/03:30am 13.6 - - - - NW 13 15 7 8 1014.6 1014.6 0.0
03/03:00am 13.9 - - - - NNW 13 17 7 9 1014.8 1014.8 0.0
03/02:30am 13.9 - - - - N 13 15 7 8 1014.9 1014.9 0.0
03/02:00am 14.2 - - - - N 17 19 9 10 1015.2 1015.2 0.0
03/01:30am 14.3 - - - - N 19 24 10 13 1015.3 1015.3 0.0
03/01:00am 14.5 - - - - N 19 24 10 13 1015.7 1015.7 0.0
03/12:30am 14.3 - - - - N 19 24 10 13 1016.0 1016.0 0.0
03/12:00am 14.4 - - - - N 20 26 11 14 1016.1 1016.1 0.0
 
Date/Time
EDT
Temp
°C
App
Temp
°C
Dew
Point
°C
Rel
Hum
%
Delta-T
°C
Wind Press
QNH
hPa
Press
MSL
hPa
Rain since
9am
mm
Dir  Spd
km/h
Gust
km/h
Spd
kts
Gust
kts
02/11:30pm 14.5 - - - - N 22 28 12 15 1016.2 1016.2 0.0

Latest Capital City Observations: Canberra | Sydney | Melbourne | Brisbane | Adelaide | Perth | Hobart | Darwin

Other formats

Comma delimited format used in spreadsheet applications
http://www.bom.gov.au/fwo/IDT60901/IDT60901.95988.axf

JavaScript Object Notation format (JSON) in row-major order
http://www.bom.gov.au/fwo/IDT60901/IDT60901.95988.json

Data quality

Most of these data are generated automatically and are frequently updated. Quality checks on data are not normally performed. It is possible for incorrect values to appear. Refer to information at About Latest Weather Observations and please check the disclaimer before using these data.